KMTP/MTP METAR and TAF weather

Enter ICAO airport designator
Station Type Date Time Source
KMTP METAR 2023/01/30 11:54 UTC NOAA

KMTP 301154Z AUTO 00000KT 03/00 A3018 RMK AO1 SLP218 T00280000 10083 20028 53007


Station Type Date Time Source
KMTP Decoded METAR 2023/01/30 11:54 UTC NOAA

MONTAUK AIRPORT, NY, United States (KMTP) 41-04N 071-55W 2M
Jan 30, 2023 - 06:54 AM EST / 2023.01.30 1154 UTC
Wind: Calm:0
Temperature: 37.0 F (2.8 C)
Dew Point: 32.0 F (0.0 C)
Relative Humidity: 81%
Pressure (altimeter): 30.18 in. Hg (1022 hPa)
Pressure tendency: 0.02 inches (0.7 hPa) higher than three hours ago
ob: KMTP 301154Z AUTO 00000KT 03/00 A3018 RMK AO1 SLP218 T00280000 10083 20028 53007
cycle: 12

Station Type Date Time Source
KMTP TAF UTC NOAA

Error!

Example: see airport list